sensor_id;sensor_type;location;lat;lon;timestamp;pressure;altitude;pressure_sealevel;temperature;humidity
7480;BME280;3781;42.272;22.658;2023-04-06T00:01:22;94322.63;;;1.62;85.55
7480;BME280;3781;42.272;22.658;2023-04-06T00:03:49;94353.06;;;1.66;87.41
7480;BME280;3781;42.272;22.658;2023-04-06T00:06:16;94338.84;;;1.46;88.92
7480;BME280;3781;42.272;22.658;2023-04-06T00:08:43;94342.09;;;1.34;91.32
7480;BME280;3781;42.272;22.658;2023-04-06T00:11:11;94350.09;;;1.28;93.98
7480;BME280;3781;42.272;22.658;2023-04-06T00:13:38;94332.00;;;1.17;95.97
7480;BME280;3781;42.272;22.658;2023-04-06T00:16:06;94341.38;;;1.32;95.10
7480;BME280;3781;42.272;22.658;2023-04-06T00:18:32;94344.91;;;1.30;94.67
7480;BME280;3781;42.272;22.658;2023-04-06T00:20:59;94345.34;;;1.22;88.98
7480;BME280;3781;42.272;22.658;2023-04-06T00:23:26;94343.94;;;1.32;91.90
7480;BME280;3781;42.272;22.658;2023-04-06T00:25:53;94291.13;;;0.86;87.51
7480;BME280;3781;42.272;22.658;2023-04-06T00:28:22;94308.56;;;1.09;88.18
7480;BME280;3781;42.272;22.658;2023-04-06T00:30:51;94328.91;;;1.26;86.01
7480;BME280;3781;42.272;22.658;2023-04-06T00:33:20;94291.41;;;1.11;85.94
7480;BME280;3781;42.272;22.658;2023-04-06T00:35:47;94293.06;;;1.12;85.53
7480;BME280;3781;42.272;22.658;2023-04-06T00:38:15;94292.59;;;1.06;88.67
7480;BME280;3781;42.272;22.658;2023-04-06T00:40:42;94310.91;;;0.98;88.08
7480;BME280;3781;42.272;22.658;2023-04-06T00:43:11;94327.63;;;1.19;85.60
7480;BME280;3781;42.272;22.658;2023-04-06T00:45:40;94267.03;;;0.90;86.44
7480;BME280;3781;42.272;22.658;2023-04-06T00:48:08;94315.56;;;1.21;89.94
7480;BME280;3781;42.272;22.658;2023-04-06T00:50:35;94326.34;;;1.26;88.67
7480;BME280;3781;42.272;22.658;2023-04-06T00:53:02;94319.41;;;1.28;85.76
7480;BME280;3781;42.272;22.658;2023-04-06T00:55:29;94314.63;;;1.22;84.81
7480;BME280;3781;42.272;22.658;2023-04-06T00:57:57;94327.19;;;1.27;84.78
7480;BME280;3781;42.272;22.658;2023-04-06T01:00:24;94314.47;;;1.25;86.82
7480;BME280;3781;42.272;22.658;2023-04-06T01:02:53;94274.78;;;1.04;86.33
7480;BME280;3781;42.272;22.658;2023-04-06T01:05:20;94310.69;;;1.32;85.56
7480;BME280;3781;42.272;22.658;2023-04-06T01:07:46;94304.72;;;1.32;84.46
7480;BME280;3781;42.272;22.658;2023-04-06T01:10:22;94305.00;;;1.41;86.84
7480;BME280;3781;42.272;22.658;2023-04-06T01:12:50;94307.56;;;1.41;84.13
7480;BME280;3781;42.272;22.658;2023-04-06T01:15:17;94297.63;;;1.37;85.25
7480;BME280;3781;42.272;22.658;2023-04-06T01:17:43;94288.38;;;1.34;88.10
7480;BME280;3781;42.272;22.658;2023-04-06T01:20:12;94284.78;;;1.23;85.04
7480;BME280;3781;42.272;22.658;2023-04-06T01:22:40;94300.25;;;1.35;86.42
7480;BME280;3781;42.272;22.658;2023-04-06T01:25:08;94274.91;;;1.17;86.29
7480;BME280;3781;42.272;22.658;2023-04-06T01:27:35;94296.69;;;1.24;87.25
7480;BME280;3781;42.272;22.658;2023-04-06T01:30:02;94291.66;;;1.07;86.93
7480;BME280;3781;42.272;22.658;2023-04-06T01:32:30;94292.81;;;1.17;86.61
7480;BME280;3781;42.272;22.658;2023-04-06T01:34:57;94287.44;;;1.21;87.54
7480;BME280;3781;42.272;22.658;2023-04-06T01:37:23;94294.59;;;1.30;86.19
7480;BME280;3781;42.272;22.658;2023-04-06T01:39:52;94261.81;;;1.07;86.61
7480;BME280;3781;42.272;22.658;2023-04-06T01:42:19;94297.31;;;1.27;87.48
7480;BME280;3781;42.272;22.658;2023-04-06T01:44:46;94293.84;;;1.28;90.38
7480;BME280;3781;42.272;22.658;2023-04-06T01:47:13;94282.44;;;1.34;90.46
7480;BME280;3781;42.272;22.658;2023-04-06T01:49:39;94279.53;;;1.40;94.51
7480;BME280;3781;42.272;22.658;2023-04-06T01:52:06;94264.06;;;1.41;99.86
7480;BME280;3781;42.272;22.658;2023-04-06T01:54:33;94278.16;;;1.48;100.00
7480;BME280;3781;42.272;22.658;2023-04-06T01:57:01;94274.72;;;1.49;100.00
7480;BME280;3781;42.272;22.658;2023-04-06T01:59:28;94274.72;;;1.49;100.00
7480;BME280;3781;42.272;22.658;2023-04-06T02:01:55;94278.38;;;1.60;99.87
7480;BME280;3781;42.272;22.658;2023-04-06T02:04:22;94241.22;;;1.24;98.15
7480;BME280;3781;42.272;22.658;2023-04-06T02:06:48;94267.50;;;1.56;98.46
7480;BME280;3781;42.272;22.658;2023-04-06T02:09:15;94235.78;;;1.44;96.14
7480;BME280;3781;42.272;22.658;2023-04-06T02:15:00;94262.31;;;1.72;95.50
7480;BME280;3781;42.272;22.658;2023-04-06T02:17:27;94274.81;;;1.76;95.37
7480;BME280;3781;42.272;22.658;2023-04-06T02:19:53;94279.66;;;1.67;97.85
7480;BME280;3781;42.272;22.658;2023-04-06T02:22:20;94272.16;;;1.49;96.87
7480;BME280;3781;42.272;22.658;2023-04-06T02:24:47;94272.53;;;1.43;95.07
7480;BME280;3781;42.272;22.658;2023-04-06T02:27:14;94269.75;;;1.32;98.41
7480;BME280;3781;42.272;22.658;2023-04-06T02:29:41;94236.16;;;1.09;99.97
7480;BME280;3781;42.272;22.658;2023-04-06T02:32:09;94232.34;;;1.16;100.00
7480;BME280;3781;42.272;22.658;2023-04-06T02:34:36;94271.03;;;1.39;100.00
7480;BME280;3781;42.272;22.658;2023-04-06T02:37:03;94253.47;;;1.19;100.00
7480;BME280;3781;42.272;22.658;2023-04-06T02:39:30;94256.00;;;1.19;100.00
7480;BME280;3781;42.272;22.658;2023-04-06T02:41:56;94279.25;;;1.44;100.00
7480;BME280;3781;42.272;22.658;2023-04-06T02:44:23;94276.28;;;1.52;100.00
7480;BME280;3781;42.272;22.658;2023-04-06T02:46:50;94274.09;;;1.60;100.00
7480;BME280;3781;42.272;22.658;2023-04-06T02:49:18;94278.38;;;1.60;100.00
7480;BME280;3781;42.272;22.658;2023-04-06T02:51:45;94241.25;;;1.38;100.00
7480;BME280;3781;42.272;22.658;2023-04-06T02:54:12;94217.28;;;1.25;98.99
7480;BME280;3781;42.272;22.658;2023-04-06T02:56:39;94274.09;;;1.60;100.00
7480;BME280;3781;42.272;22.658;2023-04-06T02:59:06;94275.56;;;1.64;100.00
7480;BME280;3781;42.272;22.658;2023-04-06T03:01:32;94282.69;;;1.73;100.00
7480;BME280;3781;42.272;22.658;2023-04-06T03:03:59;94250.38;;;1.42;100.00
7480;BME280;3781;42.272;22.658;2023-04-06T03:06:27;94270.38;;;1.36;100.00
7480;BME280;3781;42.272;22.658;2023-04-06T03:08:55;94280.16;;;1.29;100.00
7480;BME280;3781;42.272;22.658;2023-04-06T03:11:22;94278.31;;;1.31;100.00
7480;BME280;3781;42.272;22.658;2023-04-06T03:13:49;94274.50;;;1.38;100.00
7480;BME280;3781;42.272;22.658;2023-04-06T03:16:16;94256.88;;;1.34;100.00
7480;BME280;3781;42.272;22.658;2023-04-06T03:18:42;94275.63;;;1.48;100.00
7480;BME280;3781;42.272;22.658;2023-04-06T03:21:10;94270.31;;;1.51;100.00
7480;BME280;3781;42.272;22.658;2023-04-06T03:23:38;94271.03;;;1.39;100.00
7480;BME280;3781;42.272;22.658;2023-04-06T03:26:05;94262.97;;;1.31;100.00
7480;BME280;3781;42.272;22.658;2023-04-06T03:28:32;94264.97;;;1.26;100.00
7480;BME280;3781;42.272;22.658;2023-04-06T03:30:59;94248.25;;;1.21;100.00
7480;BME280;3781;42.272;22.658;2023-04-06T03:33:26;94264.69;;;1.31;100.00
7480;BME280;3781;42.272;22.658;2023-04-06T03:35:53;94270.06;;;1.26;100.00
7480;BME280;3781;42.272;22.658;2023-04-06T03:38:20;94269.59;;;1.20;100.00
7480;BME280;3781;42.272;22.658;2023-04-06T03:40:48;94261.88;;;1.21;100.00
7480;BME280;3781;42.272;22.658;2023-04-06T03:43:15;94263.84;;;1.16;100.00
7480;BME280;3781;42.272;22.658;2023-04-06T03:45:42;94263.22;;;1.13;100.00
7480;BME280;3781;42.272;22.658;2023-04-06T03:48:08;94259.50;;;1.03;100.00
7480;BME280;3781;42.272;22.658;2023-04-06T03:50:35;94271.81;;;0.96;100.00
7480;BME280;3781;42.272;22.658;2023-04-06T03:53:02;94249.91;;;0.76;100.00
7480;BME280;3781;42.272;22.658;2023-04-06T03:55:29;94218.81;;;0.54;100.00
7480;BME280;3781;42.272;22.658;2023-04-06T03:57:57;94270.19;;;0.95;100.00
7480;BME280;3781;42.272;22.658;2023-04-06T04:00:24;94273.47;;;0.97;100.00
7480;BME280;3781;42.272;22.658;2023-04-06T04:02:51;94249.66;;;0.81;100.00
7480;BME280;3781;42.272;22.658;2023-04-06T04:05:18;94263.75;;;0.88;100.00
7480;BME280;3781;42.272;22.658;2023-04-06T04:07:50;94210.09;;;0.43;100.00
7480;BME280;3781;42.272;22.658;2023-04-06T04:10:17;94276.66;;;0.71;100.00
7480;BME280;3781;42.272;22.658;2023-04-06T04:12:44;94253.00;;;0.52;100.00
7480;BME280;3781;42.272;22.658;2023-04-06T04:15:12;94265.09;;;0.64;100.00
7480;BME280;3781;42.272;22.658;2023-04-06T04:17:38;94264.28;;;0.63;100.00
7480;BME280;3781;42.272;22.658;2023-04-06T04:20:06;94248.31;;;0.44;100.00
7480;BME280;3781;42.272;22.658;2023-04-06T04:22:35;94272.47;;;0.54;100.00
7480;BME280;3781;42.272;22.658;2023-04-06T04:25:02;94267.34;;;0.54;100.00
7480;BME280;3781;42.272;22.658;2023-04-06T04:27:28;94274.34;;;0.51;100.00
7480;BME280;3781;42.272;22.658;2023-04-06T04:29:55;94256.66;;;0.48;100.00
7480;BME280;3781;42.272;22.658;2023-04-06T04:32:23;94268.75;;;0.44;100.00
7480;BME280;3781;42.272;22.658;2023-04-06T04:34:52;94263.81;;;0.41;100.00
7480;BME280;3781;42.272;22.658;2023-04-06T04:37:19;94265.50;;;0.72;100.00
7480;BME280;3781;42.272;22.658;2023-04-06T04:39:46;94272.31;;;0.87;100.00
7480;BME280;3781;42.272;22.658;2023-04-06T04:42:13;94261.19;;;0.88;100.00
7480;BME280;3781;42.272;22.658;2023-04-06T04:44:39;94274.03;;;1.02;100.00
7480;BME280;3781;42.272;22.658;2023-04-06T04:47:06;94280.28;;;1.12;100.00
7480;BME280;3781;42.272;22.658;2023-04-06T04:49:34;94265.66;;;1.14;100.00
7480;BME280;3781;42.272;22.658;2023-04-06T04:52:01;94270.81;;;1.28;100.00
7480;BME280;3781;42.272;22.658;2023-04-06T04:54:28;94273.25;;;1.45;100.00
7480;BME280;3781;42.272;22.658;2023-04-06T04:56:55;94267.59;;;1.69;100.00
7480;BME280;3781;42.272;22.658;2023-04-06T04:59:21;94268.38;;;1.85;100.00
7480;BME280;3781;42.272;22.658;2023-04-06T05:01:49;94240.34;;;1.96;100.00
7480;BME280;3781;42.272;22.658;2023-04-06T05:04:15;94271.66;;;2.15;95.97
7480;BME280;3781;42.272;22.658;2023-04-06T05:06:45;94276.94;;;2.26;95.59
7480;BME280;3781;42.272;22.658;2023-04-06T05:09:12;94265.16;;;2.64;91.74
7480;BME280;3781;42.272;22.658;2023-04-06T05:11:39;94272.91;;;3.03;87.24
7480;BME280;3781;42.272;22.658;2023-04-06T05:14:05;94278.06;;;3.16;83.78
7480;BME280;3781;42.272;22.658;2023-04-06T05:16:35;94275.06;;;3.49;80.40
7480;BME280;3781;42.272;22.658;2023-04-06T05:19:01;94271.69;;;3.86;76.28
7480;BME280;3781;42.272;22.658;2023-04-06T05:21:28;94271.75;;;4.47;72.91
7480;BME280;3781;42.272;22.658;2023-04-06T05:23:56;94279.13;;;4.65;68.04
7480;BME280;3781;42.272;22.658;2023-04-06T05:26:23;94279.63;;;4.70;68.33
7480;BME280;3781;42.272;22.658;2023-04-06T05:28:50;94285.13;;;4.89;66.46
7480;BME280;3781;42.272;22.658;2023-04-06T05:31:17;94257.13;;;5.08;63.30
7480;BME280;3781;42.272;22.658;2023-04-06T05:33:44;94262.94;;;5.92;60.66
7480;BME280;3781;42.272;22.658;2023-04-06T05:36:11;94274.22;;;6.57;59.60
7480;BME280;3781;42.272;22.658;2023-04-06T05:38:38;94270.91;;;5.54;58.51
7480;BME280;3781;42.272;22.658;2023-04-06T05:41:06;94241.47;;;5.80;58.84
7480;BME280;3781;42.272;22.658;2023-04-06T05:43:33;94260.25;;;6.71;57.63
7480;BME280;3781;42.272;22.658;2023-04-06T05:46:00;94269.50;;;6.73;57.20
7480;BME280;3781;42.272;22.658;2023-04-06T05:48:27;94266.38;;;6.59;58.14
7480;BME280;3781;42.272;22.658;2023-04-06T05:50:54;94258.38;;;6.73;57.96
7480;BME280;3781;42.272;22.658;2023-04-06T05:53:21;94265.53;;;6.80;56.23
7480;BME280;3781;42.272;22.658;2023-04-06T05:55:50;94229.66;;;5.43;57.88
7480;BME280;3781;42.272;22.658;2023-04-06T05:58:18;94263.50;;;5.84;59.18
7480;BME280;3781;42.272;22.658;2023-04-06T06:00:45;94261.81;;;5.83;59.83
7480;BME280;3781;42.272;22.658;2023-04-06T06:03:12;94263.53;;;5.95;57.78
7480;BME280;3781;42.272;22.658;2023-04-06T06:05:40;94258.50;;;6.38;57.33
7480;BME280;3781;42.272;22.658;2023-04-06T06:08:07;94262.38;;;6.11;59.12
7480;BME280;3781;42.272;22.658;2023-04-06T06:10:34;94232.72;;;6.38;57.15
7480;BME280;3781;42.272;22.658;2023-04-06T06:13:01;94248.31;;;6.37;55.68
7480;BME280;3781;42.272;22.658;2023-04-06T06:15:29;94254.41;;;6.25;56.11
7480;BME280;3781;42.272;22.658;2023-04-06T06:17:56;94237.44;;;5.65;57.61
7480;BME280;3781;42.272;22.658;2023-04-06T06:20:23;94244.00;;;5.69;57.42
7480;BME280;3781;42.272;22.658;2023-04-06T06:22:49;94254.41;;;5.57;56.55
7480;BME280;3781;42.272;22.658;2023-04-06T06:25:16;94259.63;;;5.44;57.85
7480;BME280;3781;42.272;22.658;2023-04-06T06:27:43;94255.97;;;4.65;59.37
7480;BME280;3781;42.272;22.658;2023-04-06T06:30:10;94253.53;;;4.87;59.15
7480;BME280;3781;42.272;22.658;2023-04-06T06:32:39;94253.72;;;5.31;60.02
7480;BME280;3781;42.272;22.658;2023-04-06T06:35:06;94191.75;;;5.45;59.55
7480;BME280;3781;42.272;22.658;2023-04-06T06:37:33;94231.09;;;6.15;56.92
7480;BME280;3781;42.272;22.658;2023-04-06T06:40:00;94249.47;;;6.44;55.48
7480;BME280;3781;42.272;22.658;2023-04-06T06:42:27;94255.47;;;7.41;54.58
7480;BME280;3781;42.272;22.658;2023-04-06T06:44:54;94223.34;;;7.02;52.98
7480;BME280;3781;42.272;22.658;2023-04-06T06:47:20;94258.84;;;6.23;56.24
7480;BME280;3781;42.272;22.658;2023-04-06T06:49:49;94257.22;;;5.65;56.26
7480;BME280;3781;42.272;22.658;2023-04-06T06:52:15;94242.91;;;5.50;59.60
7480;BME280;3781;42.272;22.658;2023-04-06T06:54:42;94250.88;;;6.03;59.18
7480;BME280;3781;42.272;22.658;2023-04-06T06:57:09;94261.59;;;5.75;55.52
7480;BME280;3781;42.272;22.658;2023-04-06T06:59:36;94256.97;;;5.68;57.88
7480;BME280;3781;42.272;22.658;2023-04-06T07:02:03;94256.66;;;5.83;57.96
7480;BME280;3781;42.272;22.658;2023-04-06T07:04:29;94244.53;;;5.96;59.85
7480;BME280;3781;42.272;22.658;2023-04-06T07:06:58;94253.00;;;6.32;59.25
7480;BME280;3781;42.272;22.658;2023-04-06T07:09:24;94230.00;;;6.62;58.38
7480;BME280;3781;42.272;22.658;2023-04-06T07:11:52;94249.91;;;6.82;57.27
7480;BME280;3781;42.272;22.658;2023-04-06T07:14:18;94215.25;;;6.31;57.62
7480;BME280;3781;42.272;22.658;2023-04-06T07:16:45;94248.75;;;6.64;55.94
7480;BME280;3781;42.272;22.658;2023-04-06T07:19:14;94248.72;;;6.86;56.04
7480;BME280;3781;42.272;22.658;2023-04-06T07:21:41;94252.19;;;6.96;54.30
7480;BME280;3781;42.272;22.658;2023-04-06T07:24:09;94238.03;;;7.22;55.74
7480;BME280;3781;42.272;22.658;2023-04-06T07:26:36;94255.94;;;7.03;53.94
7480;BME280;3781;42.272;22.658;2023-04-06T07:29:02;94245.44;;;6.84;54.85
7480;BME280;3781;42.272;22.658;2023-04-06T07:31:29;94249.44;;;6.77;54.65
7480;BME280;3781;42.272;22.658;2023-04-06T07:33:56;94250.28;;;6.55;54.33
7480;BME280;3781;42.272;22.658;2023-04-06T07:36:23;94250.22;;;7.00;53.84
7480;BME280;3781;42.272;22.658;2023-04-06T07:38:50;94245.34;;;7.17;56.55
7480;BME280;3781;42.272;22.658;2023-04-06T07:41:18;94237.84;;;7.14;53.86
7480;BME280;3781;42.272;22.658;2023-04-06T07:43:45;94247.44;;;7.23;53.79
7480;BME280;3781;42.272;22.658;2023-04-06T07:46:12;94250.44;;;7.60;54.48
7480;BME280;3781;42.272;22.658;2023-04-06T07:48:38;94220.63;;;7.77;52.97
7480;BME280;3781;42.272;22.658;2023-04-06T07:51:06;94235.22;;;7.25;52.45
7480;BME280;3781;42.272;22.658;2023-04-06T07:53:34;94253.09;;;7.49;53.33
7480;BME280;3781;42.272;22.658;2023-04-06T07:56:01;94247.66;;;8.65;51.47
7480;BME280;3781;42.272;22.658;2023-04-06T07:58:29;94248.19;;;9.37;49.06
7480;BME280;3781;42.272;22.658;2023-04-06T08:00:56;94247.50;;;9.54;47.00
7480;BME280;3781;42.272;22.658;2023-04-06T08:03:23;94238.38;;;9.50;48.22
7480;BME280;3781;42.272;22.658;2023-04-06T08:05:51;94200.22;;;10.99;44.42
7480;BME280;3781;42.272;22.658;2023-04-06T08:08:18;94230.28;;;11.81;41.83
7480;BME280;3781;42.272;22.658;2023-04-06T08:10:46;94229.03;;;13.04;40.35
7480;BME280;3781;42.272;22.658;2023-04-06T08:13:13;94239.56;;;13.28;39.75
7480;BME280;3781;42.272;22.658;2023-04-06T08:15:41;94235.38;;;14.16;39.35
7480;BME280;3781;42.272;22.658;2023-04-06T08:18:08;94228.06;;;13.05;41.22
7480;BME280;3781;42.272;22.658;2023-04-06T08:20:35;94231.81;;;12.69;41.27
7480;BME280;3781;42.272;22.658;2023-04-06T08:23:02;94217.84;;;12.19;41.52
7480;BME280;3781;42.272;22.658;2023-04-06T08:25:29;94153.19;;;10.75;43.20
7480;BME280;3781;42.272;22.658;2023-04-06T08:27:56;94218.06;;;10.20;45.26
7480;BME280;3781;42.272;22.658;2023-04-06T08:30:23;94194.84;;;9.25;46.71
7480;BME280;3781;42.272;22.658;2023-04-06T08:32:51;94219.97;;;9.43;47.87
7480;BME280;3781;42.272;22.658;2023-04-06T08:35:18;94216.13;;;9.38;48.79
7480;BME280;3781;42.272;22.658;2023-04-06T08:37:45;94222.69;;;9.61;46.32
7480;BME280;3781;42.272;22.658;2023-04-06T08:40:12;94213.59;;;10.03;46.96
7480;BME280;3781;42.272;22.658;2023-04-06T08:42:40;94224.06;;;8.58;48.34
7480;BME280;3781;42.272;22.658;2023-04-06T08:45:07;94213.09;;;7.85;49.36
7480;BME280;3781;42.272;22.658;2023-04-06T08:47:36;94215.09;;;7.60;51.55
7480;BME280;3781;42.272;22.658;2023-04-06T08:50:06;94216.09;;;7.48;51.49
7480;BME280;3781;42.272;22.658;2023-04-06T08:52:34;94198.19;;;7.15;51.93
7480;BME280;3781;42.272;22.658;2023-04-06T08:55:01;94202.94;;;6.99;53.01
7480;BME280;3781;42.272;22.658;2023-04-06T08:57:28;94163.41;;;6.88;51.92
7480;BME280;3781;42.272;22.658;2023-04-06T08:59:57;94178.81;;;7.41;51.42
7480;BME280;3781;42.272;22.658;2023-04-06T09:02:27;94193.78;;;7.89;51.97
7480;BME280;3781;42.272;22.658;2023-04-06T09:04:54;94199.19;;;8.37;51.47
7480;BME280;3781;42.272;22.658;2023-04-06T09:07:22;94205.75;;;7.90;48.91
7480;BME280;3781;42.272;22.658;2023-04-06T09:09:50;94193.03;;;8.77;47.41
7480;BME280;3781;42.272;22.658;2023-04-06T09:12:24;94191.19;;;8.19;49.90
7480;BME280;3781;42.272;22.658;2023-04-06T09:14:51;94178.72;;;7.94;50.73
7480;BME280;3781;42.272;22.658;2023-04-06T09:17:22;94163.03;;;8.65;49.39
7480;BME280;3781;42.272;22.658;2023-04-06T09:19:49;94185.72;;;9.01;48.01
7480;BME280;3781;42.272;22.658;2023-04-06T09:22:16;94191.56;;;9.03;46.87
7480;BME280;3781;42.272;22.658;2023-04-06T09:24:46;94179.97;;;9.07;47.87
7480;BME280;3781;42.272;22.658;2023-04-06T09:27:13;94157.09;;;9.32;48.44
7480;BME280;3781;42.272;22.658;2023-04-06T09:29:41;94180.66;;;10.23;47.08
7480;BME280;3781;42.272;22.658;2023-04-06T09:32:10;94173.03;;;10.48;46.05
7480;BME280;3781;42.272;22.658;2023-04-06T09:34:38;94161.22;;;10.36;44.87
7480;BME280;3781;42.272;22.658;2023-04-06T09:37:14;94177.63;;;10.82;45.90
7480;BME280;3781;42.272;22.658;2023-04-06T09:39:41;94156.25;;;10.88;43.73
7480;BME280;3781;42.272;22.658;2023-04-06T09:42:12;94152.69;;;10.71;44.45
7480;BME280;3781;42.272;22.658;2023-04-06T09:44:39;94170.97;;;10.52;45.85
7480;BME280;3781;42.272;22.658;2023-04-06T09:47:06;94153.09;;;10.12;45.53
7480;BME280;3781;42.272;22.658;2023-04-06T09:49:34;94166.78;;;9.95;46.58
7480;BME280;3781;42.272;22.658;2023-04-06T09:52:02;94139.03;;;10.05;46.50
7480;BME280;3781;42.272;22.658;2023-04-06T09:54:30;94176.56;;;10.20;45.41
7480;BME280;3781;42.272;22.658;2023-04-06T09:57:03;94179.66;;;9.68;46.58
7480;BME280;3781;42.272;22.658;2023-04-06T09:59:38;94174.75;;;9.84;46.41
7480;BME280;3781;42.272;22.658;2023-04-06T10:02:15;94123.34;;;9.51;47.38
7480;BME280;3781;42.272;22.658;2023-04-06T10:04:53;94144.50;;;9.56;45.68
7480;BME280;3781;42.272;22.658;2023-04-06T10:07:22;94170.31;;;9.09;47.45
7480;BME280;3781;42.272;22.658;2023-04-06T10:09:49;94172.34;;;8.96;47.69
7480;BME280;3781;42.272;22.658;2023-04-06T10:12:17;94138.53;;;8.88;47.96
7480;BME280;3781;42.272;22.658;2023-04-06T10:14:45;94171.66;;;8.94;48.33
7480;BME280;3781;42.272;22.658;2023-04-06T10:17:12;94171.41;;;8.97;49.25
7480;BME280;3781;42.272;22.658;2023-04-06T10:19:49;94157.59;;;8.87;47.86
7480;BME280;3781;42.272;22.658;2023-04-06T10:22:28;94161.84;;;9.27;48.60
7480;BME280;3781;42.272;22.658;2023-04-06T10:24:56;94168.25;;;9.23;48.09
7480;BME280;3781;42.272;22.658;2023-04-06T10:27:29;94146.47;;;9.16;47.55
7480;BME280;3781;42.272;22.658;2023-04-06T10:30:03;94148.34;;;9.13;48.52
7480;BME280;3781;42.272;22.658;2023-04-06T10:32:34;94169.38;;;9.39;48.64
7480;BME280;3781;42.272;22.658;2023-04-06T10:35:07;94154.63;;;9.21;49.05
7480;BME280;3781;42.272;22.658;2023-04-06T10:37:46;94133.91;;;9.01;46.68
7480;BME280;3781;42.272;22.658;2023-04-06T10:40:22;94160.84;;;8.61;47.94
7480;BME280;3781;42.272;22.658;2023-04-06T10:42:49;94138.81;;;7.96;49.62
7480;BME280;3781;42.272;22.658;2023-04-06T10:45:22;94160.53;;;8.14;52.03
7480;BME280;3781;42.272;22.658;2023-04-06T10:47:49;94149.28;;;7.65;49.59
7480;BME280;3781;42.272;22.658;2023-04-06T10:50:16;94156.00;;;8.07;51.91
7480;BME280;3781;42.272;22.658;2023-04-06T10:52:44;94136.19;;;8.17;48.68
7480;BME280;3781;42.272;22.658;2023-04-06T10:55:13;94147.06;;;8.41;46.93
7480;BME280;3781;42.272;22.658;2023-04-06T10:57:41;94152.75;;;8.35;48.75
7480;BME280;3781;42.272;22.658;2023-04-06T11:00:08;94141.41;;;8.26;48.83
7480;BME280;3781;42.272;22.658;2023-04-06T11:02:37;94143.66;;;8.20;49.95
7480;BME280;3781;42.272;22.658;2023-04-06T11:05:05;94144.97;;;8.25;49.65
7480;BME280;3781;42.272;22.658;2023-04-06T11:07:32;94152.94;;;8.13;50.93
7480;BME280;3781;42.272;22.658;2023-04-06T11:09:59;94142.97;;;8.08;49.89
7480;BME280;3781;42.272;22.658;2023-04-06T11:12:27;94146.53;;;8.17;49.56
7480;BME280;3781;42.272;22.658;2023-04-06T11:14:56;94152.19;;;8.31;48.30
7480;BME280;3781;42.272;22.658;2023-04-06T11:17:28;94102.66;;;8.06;48.71
7480;BME280;3781;42.272;22.658;2023-04-06T11:19:57;94133.06;;;8.23;47.76
7480;BME280;3781;42.272;22.658;2023-04-06T11:22:24;94114.00;;;8.14;50.06
7480;BME280;3781;42.272;22.658;2023-04-06T11:24:51;94121.00;;;8.33;49.96
7480;BME280;3781;42.272;22.658;2023-04-06T11:27:18;94132.94;;;8.64;49.72
7480;BME280;3781;42.272;22.658;2023-04-06T11:29:46;94112.63;;;8.50;48.53
7480;BME280;3781;42.272;22.658;2023-04-06T11:32:21;94145.06;;;8.73;46.98
7480;BME280;3781;42.272;22.658;2023-04-06T11:34:49;94110.31;;;8.66;47.84
7480;BME280;3781;42.272;22.658;2023-04-06T11:37:17;94133.38;;;8.88;47.70
7480;BME280;3781;42.272;22.658;2023-04-06T11:39:48;94149.88;;;8.38;46.11
7480;BME280;3781;42.272;22.658;2023-04-06T11:42:21;94133.44;;;8.39;48.67
7480;BME280;3781;42.272;22.658;2023-04-06T11:44:50;94141.47;;;8.46;48.83
7480;BME280;3781;42.272;22.658;2023-04-06T11:47:19;94101.09;;;8.24;49.51
7480;BME280;3781;42.272;22.658;2023-04-06T11:49:47;94138.19;;;8.34;50.52
7480;BME280;3781;42.272;22.658;2023-04-06T11:52:17;94103.84;;;7.62;52.35
7480;BME280;3781;42.272;22.658;2023-04-06T11:54:45;94141.16;;;7.69;52.59
7480;BME280;3781;42.272;22.658;2023-04-06T11:57:13;94115.34;;;7.28;53.94
7480;BME280;3781;42.272;22.658;2023-04-06T11:59:40;94107.72;;;6.85;54.22
7480;BME280;3781;42.272;22.658;2023-04-06T12:02:06;94133.72;;;6.93;54.69
7480;BME280;3781;42.272;22.658;2023-04-06T12:04:34;94131.69;;;6.76;55.65
7480;BME280;3781;42.272;22.658;2023-04-06T12:07:03;94132.75;;;6.94;54.62
7480;BME280;3781;42.272;22.658;2023-04-06T12:09:32;94136.91;;;7.17;54.51
7480;BME280;3781;42.272;22.658;2023-04-06T12:11:59;94120.56;;;6.96;54.53
7480;BME280;3781;42.272;22.658;2023-04-06T12:14:26;94127.63;;;7.15;55.51
7480;BME280;3781;42.272;22.658;2023-04-06T12:16:53;94071.84;;;6.82;53.46
7480;BME280;3781;42.272;22.658;2023-04-06T12:19:20;94132.44;;;7.19;53.71
7480;BME280;3781;42.272;22.658;2023-04-06T12:21:51;94127.56;;;7.46;53.22
7480;BME280;3781;42.272;22.658;2023-04-06T12:24:17;94130.25;;;7.24;51.77
7480;BME280;3781;42.272;22.658;2023-04-06T12:26:46;94131.84;;;7.16;53.21
7480;BME280;3781;42.272;22.658;2023-04-06T12:29:13;94122.31;;;7.57;53.55
7480;BME280;3781;42.272;22.658;2023-04-06T12:31:40;94127.84;;;7.74;52.74
7480;BME280;3781;42.272;22.658;2023-04-06T12:34:08;94111.25;;;8.06;51.56
7480;BME280;3781;42.272;22.658;2023-04-06T12:36:37;94099.44;;;8.23;51.37
7480;BME280;3781;42.272;22.658;2023-04-06T12:39:04;94117.22;;;8.37;51.89
7480;BME280;3781;42.272;22.658;2023-04-06T12:41:31;94108.25;;;8.51;51.25
7480;BME280;3781;42.272;22.658;2023-04-06T12:43:59;94121.34;;;8.68;48.78
7480;BME280;3781;42.272;22.658;2023-04-06T12:46:27;94092.75;;;8.60;50.73
7480;BME280;3781;42.272;22.658;2023-04-06T12:48:55;94097.59;;;8.44;49.51
7480;BME280;3781;42.272;22.658;2023-04-06T12:51:23;94105.97;;;8.95;48.42
7480;BME280;3781;42.272;22.658;2023-04-06T12:53:50;94073.13;;;8.86;48.91
7480;BME280;3781;42.272;22.658;2023-04-06T12:56:18;94108.97;;;8.81;48.30
7480;BME280;3781;42.272;22.658;2023-04-06T12:58:46;94058.66;;;8.74;48.34
7480;BME280;3781;42.272;22.658;2023-04-06T13:01:14;94103.34;;;8.57;49.51
7480;BME280;3781;42.272;22.658;2023-04-06T13:03:41;94049.00;;;7.98;48.95
7480;BME280;3781;42.272;22.658;2023-04-06T13:06:09;94077.78;;;8.83;48.23
7480;BME280;3781;42.272;22.658;2023-04-06T13:08:36;94068.75;;;8.77;48.51
7480;BME280;3781;42.272;22.658;2023-04-06T13:11:04;94105.53;;;8.52;49.27
7480;BME280;3781;42.272;22.658;2023-04-06T13:13:31;94095.88;;;8.73;48.19
7480;BME280;3781;42.272;22.658;2023-04-06T13:16:00;94096.72;;;9.02;47.12
7480;BME280;3781;42.272;22.658;2023-04-06T13:18:29;94088.78;;;8.37;49.30
7480;BME280;3781;42.272;22.658;2023-04-06T13:20:56;94062.94;;;7.67;49.86
7480;BME280;3781;42.272;22.658;2023-04-06T13:23:23;94081.72;;;8.09;48.98
7480;BME280;3781;42.272;22.658;2023-04-06T13:25:57;94047.69;;;8.04;49.52